Time;durP1;ratioP1;P1;durP2;ratioP2;P2;SDS_P1;SDS_P2;PMS_P1;PMS_P2;Temp;Humidity;BMP_temperature;BMP_pressure;BME280_temperature;BME280_humidity;BME280_pressure;Samples;Min_cycle;Max_cycle;Signal;HPM_P1;HPM_P2
2021/08/20 00:03:26;;;;;;;3.00;1.67;;;21.30;73.70;;;;;;10148422;28;20032;-60
2021/08/20 00:08:17;;;;;;;2.10;1.45;;;21.20;73.90;;;;;;10145217;28;20111;-62
2021/08/20 00:13:07;;;;;;;2.58;1.52;;;21.20;74.00;;;;;;10138330;28;20040;-63
2021/08/20 00:17:58;;;;;;;2.65;1.48;;;21.20;74.00;;;;;;10143696;28;20037;-62
2021/08/20 00:22:49;;;;;;;4.68;1.60;;;21.40;73.90;;;;;;10145754;28;20052;-62
2021/08/20 00:27:40;;;;;;;2.72;1.60;;;21.30;74.00;;;;;;10137230;28;20150;-62
2021/08/20 00:32:31;;;;;;;3.13;2.10;;;21.30;74.00;;;;;;10136390;28;20063;-61
2021/08/20 00:37:21;;;;;;;2.33;2.00;;;21.20;74.10;;;;;;10137080;28;20133;-65
2021/08/20 00:42:12;;;;;;;2.58;1.60;;;21.30;74.30;;;;;;10143391;28;20029;-63
2021/08/20 00:47:03;;;;;;;1.83;1.65;;;21.40;74.30;;;;;;10130935;28;20024;-60
2021/08/20 00:51:55;;;;;;;2.53;1.50;;;21.20;74.30;;;;;;10133673;28;20115;-62
2021/08/20 00:56:45;;;;;;;3.58;1.80;;;21.30;74.30;;;;;;10131251;28;20467;-64
2021/08/20 01:01:37;;;;;;;5.35;2.28;;;21.30;74.10;;;;;;10132694;28;20115;-63
2021/08/20 01:06:31;;;;;;;3.00;2.08;;;21.30;74.20;;;;;;10136477;28;20584;-62
2021/08/20 01:11:23;;;;;;;3.72;2.15;;;21.40;74.20;;;;;;10144551;28;20036;-61
2021/08/20 01:16:14;;;;;;;3.75;2.35;;;21.30;74.50;;;;;;10131445;28;20032;-62
2021/08/20 01:21:17;;;;;;;3.00;1.85;;;21.30;74.60;;;;;;10142386;28;20090;-62
2021/08/20 01:26:08;;;;;;;2.63;1.52;;;21.30;74.80;;;;;;10128381;28;20044;-62
2021/08/20 01:31:07;;;;;;;2.55;1.40;;;21.20;75.10;;;;;;10151898;28;20389;-61
2021/08/20 01:35:59;;;;;;;2.67;1.08;;;21.20;75.00;;;;;;10124472;28;20090;-61
2021/08/20 01:40:50;;;;;;;1.95;1.75;;;21.20;74.90;;;;;;10139439;28;20044;-61
2021/08/20 01:45:43;;;;;;;2.97;1.60;;;21.30;74.80;;;;;;10146912;28;20448;-62
2021/08/20 01:50:34;;;;;;;3.33;1.30;;;21.20;74.70;;;;;;10139731;28;20060;-61
2021/08/20 01:55:25;;;;;;;2.08;1.27;;;21.20;74.90;;;;;;10125338;28;20056;-60
2021/08/20 02:00:16;;;;;;;3.80;1.58;;;21.10;74.80;;;;;;10151271;28;20580;-62
2021/08/20 02:05:07;;;;;;;1.95;1.20;;;21.10;74.90;;;;;;10151761;28;20024;-61
2021/08/20 02:09:58;;;;;;;2.42;1.50;;;21.00;75.20;;;;;;10139575;28;20032;-61
2021/08/20 02:14:49;;;;;;;2.00;1.33;;;20.90;75.40;;;;;;10124531;28;20429;-62
2021/08/20 02:19:39;;;;;;;2.38;1.40;;;20.80;75.70;;;;;;10136988;28;20097;-62
2021/08/20 02:24:30;;;;;;;2.42;1.33;;;20.70;75.60;;;;;;10145992;28;20028;-62
2021/08/20 02:29:20;;;;;;;3.45;1.40;;;20.60;75.80;;;;;;10146668;28;20103;-62
2021/08/20 02:34:11;;;;;;;2.13;1.52;;;20.70;75.70;;;;;;10143346;28;20028;-61
2021/08/20 02:39:03;;;;;;;4.53;1.55;;;20.60;75.60;;;;;;10148935;28;20040;-63
2021/08/20 02:43:53;;;;;;;3.63;1.73;;;20.60;75.50;;;;;;10147445;28;20024;-61
2021/08/20 02:48:44;;;;;;;2.40;1.63;;;20.70;75.70;;;;;;10137279;28;20047;-61
2021/08/20 02:53:35;;;;;;;2.25;1.60;;;20.60;75.70;;;;;;10147734;28;20017;-61
2021/08/20 02:58:26;;;;;;;3.13;1.92;;;20.70;75.70;;;;;;10145726;28;20640;-61
2021/08/20 03:03:17;;;;;;;2.47;1.90;;;20.60;75.90;;;;;;10144655;28;20107;-61
2021/08/20 03:08:07;;;;;;;2.88;1.98;;;20.60;76.00;;;;;;10134165;28;20645;-62
2021/08/20 03:12:58;;;;;;;2.47;1.75;;;20.60;75.80;;;;;;10142692;28;20037;-62
2021/08/20 03:17:49;;;;;;;3.00;1.73;;;20.50;76.20;;;;;;10141545;28;20032;-62
2021/08/20 03:22:39;;;;;;;3.83;2.47;;;20.50;76.30;;;;;;10138691;28;20044;-62
2021/08/20 03:27:30;;;;;;;5.65;3.00;;;20.40;76.30;;;;;;10140429;28;20078;-62
2021/08/20 03:32:21;;;;;;;4.18;2.30;;;20.20;76.60;;;;;;10142919;28;20024;-62
2021/08/20 03:37:12;;;;;;;3.00;2.33;;;20.10;77.00;;;;;;10144009;28;20220;-63
2021/08/20 03:42:03;;;;;;;4.57;2.47;;;20.10;77.20;;;;;;10131731;28;20021;-61
2021/08/20 03:46:54;;;;;;;3.28;2.20;;;20.20;77.00;;;;;;10147442;28;20051;-62
2021/08/20 03:51:44;;;;;;;4.97;2.45;;;20.20;76.90;;;;;;10139878;28;20157;-62
2021/08/20 03:56:35;;;;;;;5.60;2.00;;;20.00;77.50;;;;;;10142385;28;20555;-63
2021/08/20 04:01:26;;;;;;;3.58;2.17;;;19.90;77.70;;;;;;10143392;28;20046;-62
2021/08/20 04:06:16;;;;;;;3.70;2.35;;;20.00;77.80;;;;;;10125980;28;20032;-61
2021/08/20 04:11:11;;;;;;;4.90;3.33;;;19.80;77.90;;;;;;10136230;28;20052;-62
2021/08/20 04:16:02;;;;;;;3.67;2.30;;;19.70;78.40;;;;;;10146684;28;20510;-61
2021/08/20 04:20:53;;;;;;;5.07;2.88;;;19.80;78.30;;;;;;10145285;28;20028;-62
2021/08/20 04:25:43;;;;;;;4.03;2.67;;;19.70;78.40;;;;;;10137634;28;20051;-62
2021/08/20 04:30:34;;;;;;;6.28;2.90;;;19.70;78.70;;;;;;10138957;28;20020;-61
2021/08/20 04:35:26;;;;;;;4.72;2.40;;;19.70;78.80;;;;;;10146986;28;20027;-61
2021/08/20 04:40:17;;;;;;;6.65;3.03;;;19.80;78.60;;;;;;10143107;28;20036;-61
2021/08/20 04:45:08;;;;;;;4.93;3.25;;;19.80;78.50;;;;;;10131438;28;20440;-62
2021/08/20 04:49:59;;;;;;;3.97;2.50;;;19.60;79.20;;;;;;10134959;28;20082;-61
2021/08/20 04:54:50;;;;;;;4.40;3.03;;;19.70;79.20;;;;;;10139500;28;20074;-62
2021/08/20 04:59:40;;;;;;;6.70;3.33;;;19.90;79.00;;;;;;10133680;28;20045;-62
2021/08/20 05:04:34;;;;;;;3.55;2.75;;;19.90;78.60;;;;;;10149197;28;20035;-62
2021/08/20 05:09:26;;;;;;;6.57;4.15;;;19.80;79.30;;;;;;10144702;28;20044;-61
2021/08/20 05:14:16;;;;;;;5.43;2.92;;;19.70;79.40;;;;;;10144552;28;20044;-61
2021/08/20 05:19:07;;;;;;;6.80;3.58;;;19.70;79.40;;;;;;10146591;28;20044;-62
2021/08/20 05:23:58;;;;;;;4.90;3.40;;;19.60;79.70;;;;;;10154047;28;20501;-65
2021/08/20 05:28:49;;;;;;;6.80;4.13;;;19.70;79.70;;;;;;10139286;28;20036;-62
2021/08/20 05:33:39;;;;;;;9.13;3.90;;;19.70;79.80;;;;;;10149184;28;20025;-62
2021/08/20 05:38:30;;;;;;;5.00;3.45;;;19.80;79.50;;;;;;10154499;28;20229;-61
2021/08/20 05:43:20;;;;;;;5.72;3.88;;;19.70;79.80;;;;;;10145453;28;20016;-63
2021/08/20 05:48:11;;;;;;;7.28;4.25;;;19.70;80.00;;;;;;10153451;28;20113;-62
2021/08/20 05:53:02;;;;;;;7.30;3.40;;;19.90;79.80;;;;;;10150262;28;20417;-62
2021/08/20 05:57:53;;;;;;;5.70;3.10;;;20.00;79.80;;;;;;10138387;28;20041;-63
2021/08/20 06:02:43;;;;;;;7.07;3.58;;;20.10;79.60;;;;;;10141510;28;20021;-61
2021/08/20 06:07:34;;;;;;;10.70;4.30;;;20.20;79.30;;;;;;10137045;28;20389;-61
2021/08/20 06:12:27;;;;;;;6.60;3.17;;;20.40;79.00;;;;;;10149078;28;20048;-63
2021/08/20 06:17:18;;;;;;;4.32;2.97;;;20.40;79.10;;;;;;10142783;28;20334;-62
2021/08/20 06:22:08;;;;;;;5.05;2.97;;;20.40;78.90;;;;;;10148000;28;20542;-61
2021/08/20 06:26:59;;;;;;;7.47;4.05;;;20.40;78.90;;;;;;10139713;28;20108;-63
2021/08/20 06:31:50;;;;;;;7.68;4.57;;;20.40;78.90;;;;;;10142011;28;20451;-62
2021/08/20 06:36:42;;;;;;;6.95;3.35;;;20.50;78.70;;;;;;10152375;28;20036;-61
2021/08/20 06:41:32;;;;;;;6.78;3.30;;;20.60;78.40;;;;;;10138408;28;20029;-63
2021/08/20 06:46:23;;;;;;;4.78;3.22;;;20.60;78.30;;;;;;10143456;28;20429;-62
2021/08/20 06:51:15;;;;;;;5.63;3.10;;;20.70;77.90;;;;;;10143029;28;20043;-61
2021/08/20 06:56:06;;;;;;;6.03;4.07;;;20.80;77.60;;;;;;10140590;28;20063;-62
2021/08/20 07:00:57;;;;;;;7.93;3.53;;;20.70;77.70;;;;;;10138978;28;20035;-62
2021/08/20 07:05:48;;;;;;;6.30;3.15;;;20.50;77.80;;;;;;10140423;28;20032;-61
2021/08/20 07:10:38;;;;;;;5.20;3.25;;;20.60;77.60;;;;;;10141263;28;20063;-60
2021/08/20 07:15:29;;;;;;;3.70;2.63;;;20.80;77.00;;;;;;10143179;28;20013;-60
2021/08/20 07:20:21;;;;;;;4.05;2.85;;;20.80;76.90;;;;;;10136650;28;20052;-65
2021/08/20 07:25:12;;;;;;;4.40;2.97;;;20.90;76.50;;;;;;10141388;28;20108;-60
2021/08/20 07:30:04;;;;;;;5.10;3.08;;;20.80;76.30;;;;;;10124615;28;20124;-63
2021/08/20 07:34:55;;;;;;;5.53;3.08;;;20.90;75.90;;;;;;10136997;28;20060;-60
2021/08/20 07:39:46;;;;;;;4.35;2.88;;;20.70;75.90;;;;;;10137040;28;20063;-60
2021/08/20 07:44:36;;;;;;;4.72;3.00;;;20.80;75.80;;;;;;10140411;28;20106;-60
2021/08/20 07:49:29;;;;;;;5.32;2.92;;;21.00;75.30;;;;;;10132465;28;20070;-62
2021/08/20 07:54:20;;;;;;;4.75;2.97;;;21.10;74.80;;;;;;10138893;28;20016;-60
2021/08/20 07:59:11;;;;;;;4.18;3.17;;;21.20;74.30;;;;;;10137620;28;20041;-60
2021/08/20 08:04:01;;;;;;;5.65;3.80;;;21.40;74.10;;;;;;10140748;28;20501;-58
2021/08/20 08:08:53;;;;;;;7.30;3.55;;;21.60;73.60;;;;;;10135783;28;20482;-59
2021/08/20 08:13:44;;;;;;;3.85;2.70;;;21.70;73.30;;;;;;10137367;28;20040;-59
2021/08/20 08:18:34;;;;;;;4.10;2.67;;;21.80;73.00;;;;;;10135464;28;20037;-63
2021/08/20 08:23:25;;;;;;;10.80;6.20;;;21.60;73.00;;;;;;10143891;28;20024;-62
2021/08/20 08:28:16;;;;;;;3.92;2.70;;;21.80;72.50;;;;;;10134979;28;20115;-62
2021/08/20 08:33:09;;;;;;;4.25;2.95;;;22.00;71.90;;;;;;10136802;28;20463;-61
2021/08/20 08:38:07;;;;;;;4.88;2.45;;;22.00;71.90;;;;;;10140551;28;20068;-61
2021/08/20 08:42:58;;;;;;;5.13;3.00;;;22.00;71.30;;;;;;10122514;28;20024;-61
2021/08/20 08:47:52;;;;;;;5.80;2.45;;;22.20;70.90;;;;;;10146263;28;20119;-61
2021/08/20 08:52:43;;;;;;;3.97;2.70;;;22.30;70.50;;;;;;10145066;28;20374;-61
2021/08/20 08:57:34;;;;;;;4.93;2.67;;;22.30;70.50;;;;;;10139913;28;20025;-60
2021/08/20 09:02:26;;;;;;;4.70;2.33;;;22.40;70.10;;;;;;10148489;28;20025;-61
2021/08/20 09:07:17;;;;;;;4.68;2.80;;;22.50;69.70;;;;;;10143402;28;20031;-60
2021/08/20 09:12:09;;;;;;;4.30;2.33;;;22.60;69.60;;;;;;10142039;28;20041;-59
2021/08/20 09:17:00;;;;;;;6.75;4.45;;;22.70;69.40;;;;;;10147122;28;20074;-62
2021/08/20 09:21:58;;;;;;;4.43;2.80;;;22.80;69.00;;;;;;10146658;28;20495;-61
2021/08/20 09:26:49;;;;;;;4.57;3.10;;;22.80;68.90;;;;;;10132647;28;20058;-62
2021/08/20 09:31:50;;;;;;;3.20;2.15;;;22.90;68.70;;;;;;10138907;28;20165;-62
2021/08/20 09:36:41;;;;;;;4.30;3.08;;;23.20;68.10;;;;;;10139604;28;20029;-61
2021/08/20 09:41:34;;;;;;;4.43;2.58;;;23.50;67.40;;;;;;10143256;28;20028;-61
2021/08/20 09:46:25;;;;;;;5.00;2.80;;;23.60;67.20;;;;;;10138683;28;20055;-60
2021/08/20 09:51:30;;;;;;;8.63;3.45;;;23.80;67.00;;;;;;10137932;28;20627;-61
2021/08/20 09:56:21;;;;;;;6.25;2.95;;;23.80;66.60;;;;;;10139524;28;20174;-60
2021/08/20 10:01:12;;;;;;;5.07;2.50;;;23.60;67.00;;;;;;10140250;28;20040;-60
2021/08/20 10:06:04;;;;;;;4.03;2.58;;;23.30;67.20;;;;;;10152454;28;20194;-60
2021/08/20 10:10:56;;;;;;;3.60;2.30;;;23.20;67.10;;;;;;10141479;28;20048;-62
2021/08/20 10:15:47;;;;;;;5.28;2.70;;;23.40;66.80;;;;;;10125255;28;20035;-62
2021/08/20 10:20:39;;;;;;;5.15;2.97;;;23.50;66.30;;;;;;10145741;28;20075;-61
2021/08/20 10:25:31;;;;;;;3.63;2.42;;;23.70;65.70;;;;;;10148971;28;20032;-63
2021/08/20 10:30:22;;;;;;;4.60;2.78;;;23.80;65.50;;;;;;10141810;28;20032;-65
2021/08/20 10:35:42;;;;;;;4.22;2.75;;;23.70;65.80;;;;;;10148446;28;20111;-63
2021/08/20 10:40:33;;;;;;;3.28;2.28;;;23.90;65.40;;;;;;10140494;28;20197;-65
2021/08/20 10:45:36;;;;;;;4.15;2.50;;;24.20;64.90;;;;;;10149381;28;20157;-63
2021/08/20 10:50:37;;;;;;;4.00;2.25;;;24.50;64.10;;;;;;10142342;28;20583;-62
2021/08/20 10:55:30;;;;;;;3.33;2.10;;;24.70;63.90;;;;;;10142948;28;20025;-66
2021/08/20 11:00:20;;;;;;;2.22;2.00;;;24.60;63.90;;;;;;10137150;28;20060;-63
2021/08/20 11:05:14;;;;;;;2.63;2.03;;;24.70;63.60;;;;;;10150796;28;20025;-62
2021/08/20 11:10:08;;;;;;;5.38;2.97;;;24.70;63.20;;;;;;10148421;28;20036;-62
2021/08/20 11:15:20;;;;;;;11.68;4.45;;;24.70;63.10;;;;;;10135131;28;20032;-62
2021/08/20 11:20:18;;;;;;;3.92;2.10;;;24.70;62.30;;;;;;10151657;28;20034;-64
2021/08/20 11:25:12;;;;;;;3.40;1.95;;;24.80;62.40;;;;;;10152469;28;20020;-62
2021/08/20 11:30:04;;;;;;;3.00;2.35;;;24.70;62.10;;;;;;10138360;28;20029;-63
2021/08/20 11:34:54;;;;;;;4.43;2.28;;;24.70;62.00;;;;;;10142240;28;20066;-63
2021/08/20 11:40:07;;;;;;;2.75;2.30;;;24.90;61.50;;;;;;10152033;28;20082;-64
2021/08/20 11:45:16;;;;;;;5.85;2.13;;;24.70;61.00;;;;;;10143865;28;20143;-62
2021/08/20 11:50:10;;;;;;;4.85;2.78;;;24.70;61.40;;;;;;10135204;28;20032;-62
2021/08/20 11:55:01;;;;;;;;;;;24.90;60.80;;;;;;10141710;28;20527;-61
2021/08/20 11:59:55;;;;;;;3.40;1.90;;;24.90;60.60;;;;;;10133180;28;19986;-61
2021/08/20 12:04:45;;;;;;;3.93;2.10;;;25.60;60.10;;;;;;10138109;28;20016;-61
2021/08/20 12:09:36;;;;;;;3.78;2.00;;;25.90;59.50;;;;;;10139368;28;20032;-61
2021/08/20 12:14:28;;;;;;;3.47;2.20;;;25.70;59.10;;;;;;10140793;28;20419;-60
2021/08/20 12:19:24;;;;;;;3.08;2.45;;;25.70;58.90;;;;;;10137303;28;20032;-61
2021/08/20 12:24:28;;;;;;;5.35;3.33;;;25.80;58.20;;;;;;10138649;28;20382;-61
2021/08/20 12:29:19;;;;;;;3.45;1.95;;;26.40;57.60;;;;;;10140574;28;20020;-61
2021/08/20 12:34:10;;;;;;;4.20;2.55;;;26.90;56.50;;;;;;10137697;28;20237;-61
2021/08/20 12:39:08;;;;;;;3.70;2.40;;;27.00;56.20;;;;;;10134072;28;20083;-60
2021/08/20 12:43:59;;;;;;;3.20;2.53;;;26.80;55.10;;;;;;10135779;28;20039;-61
2021/08/20 12:48:53;;;;;;;2.50;2.20;;;26.20;56.30;;;;;;10140253;28;20033;-60
2021/08/20 12:53:43;;;;;;;3.22;2.50;;;26.20;56.50;;;;;;10136340;28;20024;-62
2021/08/20 12:58:36;;;;;;;2.88;2.10;;;26.80;56.10;;;;;;10142643;28;20036;-58
2021/08/20 13:03:27;;;;;;;3.10;1.73;;;27.90;56.30;;;;;;10132767;28;20324;-60
2021/08/20 13:08:18;;;;;;;3.20;2.15;;;28.60;55.50;;;;;;10131771;28;20020;-59
2021/08/20 13:13:09;;;;;;;2.90;2.10;;;29.60;55.30;;;;;;10137304;28;20048;-59
2021/08/20 13:17:59;;;;;;;2.58;1.88;;;30.50;53.60;;;;;;10135021;28;20024;-59
2021/08/20 13:22:50;;;;;;;4.53;2.20;;;30.00;52.80;;;;;;10143151;28;20020;-62
2021/08/20 13:27:42;;;;;;;3.22;2.08;;;28.70;53.40;;;;;;10141338;28;20024;-62
2021/08/20 13:32:32;;;;;;;3.60;2.35;;;27.90;53.00;;;;;;10123786;28;20237;-60
2021/08/20 13:37:23;;;;;;;3.90;2.42;;;28.50;51.60;;;;;;10149187;28;20378;-61
2021/08/20 13:42:14;;;;;;;2.92;1.67;;;28.40;51.60;;;;;;10145421;28;20028;-61
2021/08/20 13:47:04;;;;;;;2.78;2.20;;;28.20;51.30;;;;;;10129850;28;20059;-60
2021/08/20 13:51:56;;;;;;;2.65;1.83;;;27.90;51.50;;;;;;10147373;28;20035;-59
2021/08/20 13:56:47;;;;;;;3.15;1.40;;;28.20;51.70;;;;;;10127158;28;20043;-61
2021/08/20 14:01:37;;;;;;;3.72;1.92;;;29.40;49.20;;;;;;10142575;28;20036;-61
2021/08/20 14:06:31;;;;;;;4.22;2.38;;;28.50;50.40;;;;;;10149887;28;20031;-60
2021/08/20 14:11:22;;;;;;;3.25;1.85;;;28.10;50.60;;;;;;10139435;28;20049;-61
2021/08/20 14:16:13;;;;;;;3.25;2.33;;;29.00;49.60;;;;;;10138790;28;20710;-62
2021/08/20 14:21:04;;;;;;;4.10;2.10;;;29.80;49.10;;;;;;10149324;28;20064;-61
2021/08/20 14:25:55;;;;;;;4.07;2.17;;;32.30;46.10;;;;;;10146098;28;20022;-61
2021/08/20 14:30:45;;;;;;;2.33;2.05;;;32.70;45.70;;;;;;10140613;28;20035;-61
2021/08/20 14:35:36;;;;;;;2.78;2.13;;;30.90;47.10;;;;;;10121135;28;20386;-61
2021/08/20 14:40:27;;;;;;;3.08;2.40;;;30.00;47.80;;;;;;10145792;28;20181;-59
2021/08/20 14:45:17;;;;;;;2.88;2.10;;;29.30;48.30;;;;;;10144187;28;20028;-60
2021/08/20 14:50:09;;;;;;;3.25;2.88;;;28.50;48.50;;;;;;10133829;28;20029;-59
2021/08/20 14:54:59;;;;;;;3.75;2.60;;;29.70;47.50;;;;;;10150292;28;20107;-61
2021/08/20 14:59:50;;;;;;;3.88;1.90;;;31.60;44.90;;;;;;10144268;28;20048;-61
2021/08/20 15:04:42;;;;;;;2.10;1.90;;;32.80;44.00;;;;;;10137854;28;20021;-61
2021/08/20 15:09:33;;;;;;;3.15;2.85;;;33.80;42.80;;;;;;10142846;28;20443;-62
2021/08/20 15:14:24;;;;;;;3.37;2.10;;;33.60;43.00;;;;;;10142062;28;20048;-61
2021/08/20 15:19:14;;;;;;;2.47;1.93;;;34.20;42.10;;;;;;10134927;28;20043;-61
2021/08/20 15:24:06;;;;;;;4.00;2.65;;;33.20;42.30;;;;;;10141742;28;20032;-62
2021/08/20 15:28:57;;;;;;;3.75;2.22;;;33.40;41.90;;;;;;10152812;28;20024;-61
2021/08/20 15:33:48;;;;;;;2.30;1.88;;;34.10;40.70;;;;;;10144130;28;20552;-63
2021/08/20 15:38:39;;;;;;;2.20;1.85;;;34.10;40.50;;;;;;10134161;28;20110;-65
2021/08/20 15:43:32;;;;;;;2.65;2.10;;;34.60;39.40;;;;;;10119868;28;20539;-65
2021/08/20 15:48:23;;;;;;;3.78;2.50;;;31.70;41.80;;;;;;10139774;28;20041;-65
2021/08/20 15:53:14;;;;;;;3.78;2.55;;;30.90;42.20;;;;;;10137384;28;20033;-63
2021/08/20 15:58:06;;;;;;;4.47;2.20;;;31.20;41.90;;;;;;10131592;28;20032;-65
2021/08/20 16:02:56;;;;;;;2.30;2.00;;;33.40;39.20;;;;;;10136140;28;20413;-62
2021/08/20 16:07:47;;;;;;;3.15;1.67;;;34.50;38.20;;;;;;10135981;28;20035;-63
2021/08/20 16:12:39;;;;;;;1.83;1.60;;;34.00;39.00;;;;;;10136017;28;20472;-63
2021/08/20 16:17:30;;;;;;;3.20;2.67;;;35.00;37.20;;;;;;10141607;28;20503;-61
2021/08/20 16:22:21;;;;;;;2.55;1.98;;;34.40;37.50;;;;;;10140558;28;20043;-61
2021/08/20 16:27:11;;;;;;;1.85;1.65;;;35.10;36.50;;;;;;10137370;28;20047;-61
2021/08/20 16:32:02;;;;;;;2.20;2.00;;;35.80;35.70;;;;;;10137392;28;20047;-60
2021/08/20 16:36:53;;;;;;;3.08;1.80;;;36.70;34.80;;;;;;10135861;28;20039;-61
2021/08/20 16:41:43;;;;;;;3.90;2.10;;;36.20;34.70;;;;;;10135364;28;20086;-61
2021/08/20 16:46:34;;;;;;;2.47;1.92;;;36.70;34.40;;;;;;10140673;28;20074;-60
2021/08/20 16:51:25;;;;;;;2.13;1.52;;;36.50;34.10;;;;;;10141260;28;20082;-60
2021/08/20 16:56:15;;;;;;;3.00;1.90;;;35.40;35.10;;;;;;10134992;28;20032;-61
2021/08/20 17:01:06;;;;;;;2.47;2.00;;;35.60;34.60;;;;;;10150843;28;20036;-62
2021/08/20 17:05:57;;;;;;;2.22;1.90;;;34.90;35.70;;;;;;10155799;28;20028;-61
2021/08/20 17:10:47;;;;;;;4.78;2.15;;;35.40;34.40;;;;;;10144010;28;20041;-61
2021/08/20 17:15:38;;;;;;;4.72;2.05;;;34.80;35.10;;;;;;10144533;28;20020;-61
2021/08/20 17:20:29;;;;;;;4.45;2.60;;;35.50;34.30;;;;;;10145600;28;20040;-58
2021/08/20 17:25:20;;;;;;;2.13;1.83;;;35.90;34.10;;;;;;10140567;28;20483;-61
2021/08/20 17:30:12;;;;;;;2.22;1.52;;;34.20;35.30;;;;;;10139402;28;20021;-60
2021/08/20 17:35:03;;;;;;;3.33;1.90;;;31.40;38.60;;;;;;10141580;28;20020;-60
2021/08/20 17:39:56;;;;;;;2.60;1.90;;;29.80;40.40;;;;;;10146985;28;20271;-60
2021/08/20 17:44:47;;;;;;;3.80;1.92;;;28.90;41.10;;;;;;10147751;28;20070;-60
2021/08/20 17:49:37;;;;;;;3.15;2.10;;;28.30;41.50;;;;;;10155236;28;20165;-61
2021/08/20 17:54:28;;;;;;;5.40;2.50;;;28.00;42.10;;;;;;10153529;28;20043;-60
2021/08/20 17:59:19;;;;;;;2.97;2.25;;;27.70;42.40;;;;;;10144456;28;20127;-61
2021/08/20 18:04:09;;;;;;;2.72;1.85;;;27.50;42.80;;;;;;10158538;28;20229;-61
2021/08/20 18:09:02;;;;;;;4.20;2.55;;;27.30;43.20;;;;;;10138154;28;20024;-60
2021/08/20 18:13:53;;;;;;;5.20;2.70;;;27.10;43.70;;;;;;10151080;28;20441;-61
2021/08/20 18:18:44;;;;;;;4.43;2.42;;;27.00;44.10;;;;;;10136707;28;20043;-61
2021/08/20 18:23:34;;;;;;;4.55;1.90;;;26.70;44.50;;;;;;10144461;28;20049;-61
2021/08/20 18:28:25;;;;;;;2.30;1.65;;;26.50;45.00;;;;;;10146021;28;20032;-61
2021/08/20 18:33:21;;;;;;;2.78;1.60;;;26.40;45.60;;;;;;10147696;28;20110;-60
2021/08/20 18:38:11;;;;;;;3.72;2.00;;;26.30;46.00;;;;;;10144519;28;20043;-60
2021/08/20 18:43:03;;;;;;;4.53;1.67;;;26.10;46.40;;;;;;10145863;28;20021;-60
2021/08/20 18:47:55;;;;;;;3.33;2.05;;;26.00;46.80;;;;;;10142265;28;20050;-60
2021/08/20 18:52:50;;;;;;;4.53;2.25;;;25.90;47.30;;;;;;10137076;28;20032;-60
2021/08/20 18:57:41;;;;;;;;;;;25.80;47.60;;;;;;10129187;28;20043;-60
2021/08/20 19:02:32;;;;;;;5.25;4.03;;;25.80;48.00;;;;;;10149658;28;19994;-60
2021/08/20 19:07:22;;;;;;;5.30;3.28;;;25.60;47.90;;;;;;10145328;28;20044;-61
2021/08/20 19:12:13;;;;;;;4.25;2.35;;;25.50;48.30;;;;;;10147451;28;20047;-62
2021/08/20 19:17:04;;;;;;;3.17;1.88;;;25.50;48.70;;;;;;10136263;28;20085;-61
2021/08/20 19:21:54;;;;;;;7.78;3.35;;;25.40;49.10;;;;;;10120468;28;20024;-60
2021/08/20 19:26:45;;;;;;;4.20;2.22;;;25.40;49.40;;;;;;10141807;28;20028;-61
2021/08/20 19:31:36;;;;;;;5.05;2.45;;;25.30;49.80;;;;;;10149963;28;20131;-60
2021/08/20 19:36:31;;;;;;;5.20;2.53;;;25.10;50.20;;;;;;10145790;28;20024;-60
2021/08/20 19:41:22;;;;;;;5.72;3.15;;;25.10;50.50;;;;;;10139992;28;20081;-61
2021/08/20 19:46:13;;;;;;;2.95;2.50;;;25.10;50.80;;;;;;10134889;28;20024;-60
2021/08/20 19:51:04;;;;;;;3.80;2.40;;;25.00;51.00;;;;;;10139750;28;20449;-61
2021/08/20 19:55:54;;;;;;;5.43;2.20;;;25.00;51.20;;;;;;10138497;28;20025;-61
2021/08/20 20:00:45;;;;;;;5.70;2.55;;;24.90;51.40;;;;;;10135442;28;20032;-61
2021/08/20 20:05:36;;;;;;;5.78;3.05;;;24.90;51.50;;;;;;10145437;28;20501;-61
2021/08/20 20:10:26;;;;;;;4.53;2.40;;;24.80;51.80;;;;;;10141652;28;20028;-61
2021/08/20 20:15:17;;;;;;;3.88;2.15;;;24.70;52.80;;;;;;10142442;28;20397;-62
2021/08/20 20:20:09;;;;;;;5.22;2.35;;;24.60;52.40;;;;;;10137915;28;20048;-60
2021/08/20 20:25:00;;;;;;;4.53;2.78;;;24.60;52.70;;;;;;10138574;28;20355;-60
2021/08/20 20:29:51;;;;;;;7.45;2.97;;;24.50;53.00;;;;;;10132343;28;20494;-61
2021/08/20 20:34:42;;;;;;;5.70;3.20;;;24.40;53.20;;;;;;10141663;28;20024;-60
2021/08/20 20:39:32;;;;;;;5.72;3.83;;;24.40;53.40;;;;;;10133618;28;20071;-60
2021/08/20 20:44:23;;;;;;;7.95;3.97;;;24.40;53.60;;;;;;10140676;28;20043;-60
2021/08/20 20:49:14;;;;;;;5.25;3.42;;;24.30;53.80;;;;;;10123264;28;20143;-59
2021/08/20 20:54:04;;;;;;;4.90;3.38;;;24.20;54.30;;;;;;10140996;28;20029;-62
2021/08/20 20:58:55;;;;;;;5.72;2.90;;;24.10;54.60;;;;;;10132386;28;20028;-59
2021/08/20 21:03:46;;;;;;;5.68;3.25;;;24.10;54.90;;;;;;10143824;28;20059;-61
2021/08/20 21:08:38;;;;;;;5.05;3.08;;;23.90;55.30;;;;;;10141432;28;20025;-61
2021/08/20 21:13:28;;;;;;;4.03;2.75;;;23.80;55.70;;;;;;10135379;28;20048;-60
2021/08/20 21:18:19;;;;;;;3.90;3.17;;;23.70;56.20;;;;;;10134156;28;20032;-60
2021/08/20 21:23:11;;;;;;;5.32;3.05;;;23.70;56.30;;;;;;10135038;28;20055;-61
2021/08/20 21:28:01;;;;;;;4.55;3.60;;;23.60;56.60;;;;;;10144835;28;20028;-59
2021/08/20 21:32:52;;;;;;;4.20;2.92;;;23.60;56.90;;;;;;10154915;28;20031;-59
2021/08/20 21:37:43;;;;;;;6.75;3.30;;;23.50;57.10;;;;;;10130913;28;20056;-62
2021/08/20 21:42:33;;;;;;;6.07;3.10;;;23.50;57.40;;;;;;10138735;28;20020;-61
2021/08/20 21:47:24;;;;;;;4.35;2.97;;;23.40;57.60;;;;;;10146568;28;20469;-60
2021/08/20 21:52:15;;;;;;;4.72;2.83;;;23.20;58.20;;;;;;10142262;28;20021;-60
2021/08/20 21:57:05;;;;;;;4.65;2.95;;;23.20;58.60;;;;;;10138437;28;20493;-61
2021/08/20 22:01:56;;;;;;;6.45;2.78;;;23.10;58.80;;;;;;10147533;28;20605;-61
2021/08/20 22:06:47;;;;;;;5.72;3.13;;;23.10;59.10;;;;;;10147743;28;20136;-62
2021/08/20 22:11:38;;;;;;;5.75;2.80;;;23.00;59.20;;;;;;10138851;28;20040;-60
2021/08/20 22:16:28;;;;;;;3.83;2.60;;;23.00;59.60;;;;;;10141170;28;20074;-60
2021/08/20 22:21:19;;;;;;;4.53;3.20;;;22.90;59.90;;;;;;10162032;28;20060;-60
2021/08/20 22:26:10;;;;;;;3.67;2.58;;;22.80;60.20;;;;;;10169304;28;20183;-60
2021/08/20 22:31:00;;;;;;;4.55;2.92;;;22.80;60.30;;;;;;10159196;28;20258;-60
2021/08/20 22:35:51;;;;;;;5.90;2.60;;;22.70;60.80;;;;;;10145582;28;20116;-60
2021/08/20 22:40:42;;;;;;;10.98;6.47;;;22.70;61.10;;;;;;10135391;28;20032;-60
2021/08/20 22:45:33;;;;;;;7.15;3.65;;;22.60;61.40;;;;;;10147855;28;20449;-60
2021/08/20 22:50:24;;;;;;;4.35;2.88;;;22.60;61.70;;;;;;10146572;28;20169;-60
2021/08/20 22:55:15;;;;;;;5.05;2.90;;;22.50;62.10;;;;;;10143485;28;20071;-59
2021/08/20 23:00:10;;;;;;;5.70;3.03;;;22.40;62.50;;;;;;10149023;28;20064;-60
2021/08/20 23:05:01;;;;;;;3.25;2.42;;;22.50;62.70;;;;;;10150447;28;20031;-59
2021/08/20 23:09:51;;;;;;;5.65;2.70;;;22.40;62.80;;;;;;10141676;28;20031;-60
2021/08/20 23:14:42;;;;;;;2.92;2.17;;;22.40;63.00;;;;;;10119990;28;20074;-59
2021/08/20 23:19:33;;;;;;;4.10;2.40;;;22.40;63.00;;;;;;10139359;28;20032;-60
2021/08/20 23:24:23;;;;;;;3.28;2.38;;;22.40;63.20;;;;;;10146245;28;20573;-60
2021/08/20 23:29:16;;;;;;;3.17;2.05;;;22.40;63.20;;;;;;10142454;28;20394;-60
2021/08/20 23:34:07;;;;;;;3.90;2.20;;;22.40;63.30;;;;;;10142548;28;20025;-60
2021/08/20 23:38:57;;;;;;;4.72;2.42;;;22.30;63.80;;;;;;10147754;28;20036;-60
2021/08/20 23:43:48;;;;;;;4.75;2.38;;;22.20;64.00;;;;;;10150749;28;20024;-59
2021/08/20 23:48:39;;;;;;;4.22;2.50;;;22.20;64.10;;;;;;10124175;28;20079;-60
2021/08/20 23:53:29;;;;;;;2.78;2.05;;;22.00;64.40;;;;;;10135836;28;20105;-61
2021/08/20 23:58:20;;;;;;;4.15;2.00;;;22.00;65.20;;;;;;10146716;28;20061;-59
